createdAt,value
2022-12-03T00:01:15.854Z,-2.60
2022-12-03T00:03:43.654Z,-2.59
2022-12-03T00:06:11.056Z,-2.58
2022-12-03T00:08:38.218Z,-2.56
2022-12-03T00:11:05.527Z,-2.63
2022-12-03T00:13:32.627Z,-2.57
2022-12-03T00:16:00.001Z,-2.56
2022-12-03T00:18:27.312Z,-2.63
2022-12-03T00:20:54.540Z,-2.66
2022-12-03T00:23:21.709Z,-2.60
2022-12-03T00:25:48.955Z,-2.58
2022-12-03T00:28:16.339Z,-2.72
2022-12-03T00:30:43.604Z,-2.72
2022-12-03T00:33:10.875Z,-2.79
2022-12-03T00:35:38.189Z,-2.75
2022-12-03T00:38:05.491Z,-2.79
2022-12-03T00:40:32.691Z,-2.64
2022-12-03T00:43:00.047Z,-2.58
2022-12-03T00:45:27.228Z,-2.54
2022-12-03T00:47:54.392Z,-2.63
2022-12-03T00:50:21.594Z,-2.66
2022-12-03T00:52:49.916Z,-2.59
2022-12-03T00:55:17.224Z,-2.55
2022-12-03T00:57:44.478Z,-2.56
2022-12-03T01:00:12.032Z,-2.54
2022-12-03T01:02:39.180Z,-2.59
2022-12-03T01:05:06.646Z,-2.66
2022-12-03T01:07:33.893Z,-2.63
2022-12-03T01:10:01.399Z,-2.58
2022-12-03T01:12:28.575Z,-2.55
2022-12-03T01:14:56.060Z,-2.55
2022-12-03T01:17:23.303Z,-2.53
2022-12-03T01:19:52.649Z,-2.59
2022-12-03T01:22:19.866Z,-2.50
2022-12-03T01:24:47.161Z,-2.57
2022-12-03T01:27:14.321Z,-2.61
2022-12-03T01:29:41.479Z,-2.57
2022-12-03T01:32:19.481Z,-2.57
2022-12-03T01:34:47.739Z,-2.58
2022-12-03T01:37:15.499Z,-2.58
2022-12-03T01:39:42.978Z,-2.53
2022-12-03T01:42:13.118Z,-2.58
2022-12-03T01:44:41.203Z,-2.55
2022-12-03T01:47:12.183Z,-2.51
2022-12-03T01:49:42.325Z,-2.53
2022-12-03T01:52:13.731Z,-2.56
2022-12-03T01:54:51.828Z,-2.53
2022-12-03T01:57:30.591Z,-2.62
2022-12-03T01:59:58.597Z,-2.59
2022-12-03T02:02:27.316Z,-2.64
2022-12-03T02:04:55.199Z,-2.65
2022-12-03T02:07:30.380Z,-2.58
2022-12-03T02:09:58.785Z,-2.61
2022-12-03T02:12:32.174Z,-2.58
2022-12-03T02:14:59.735Z,-2.62
2022-12-03T02:17:27.356Z,-2.67
2022-12-03T02:19:55.230Z,-2.66
2022-12-03T02:22:34.469Z,-2.64
2022-12-03T02:25:18.039Z,-2.66
2022-12-03T02:27:48.606Z,-2.62
2022-12-03T02:30:17.720Z,-2.68
2022-12-03T02:32:44.921Z,-2.68
2022-12-03T02:35:16.356Z,-2.67
2022-12-03T02:37:45.201Z,-2.67
2022-12-03T02:40:15.183Z,-2.67
2022-12-03T02:42:42.831Z,-2.66
2022-12-03T02:45:16.118Z,-2.66
2022-12-03T02:47:48.821Z,-2.59
2022-12-03T02:50:18.169Z,-2.59
2022-12-03T02:52:46.576Z,-2.59
2022-12-03T02:55:15.678Z,-2.57
2022-12-03T02:57:44.769Z,-2.63
2022-12-03T03:00:12.429Z,-2.62
2022-12-03T03:02:43.606Z,-2.66
2022-12-03T03:05:12.050Z,-2.58
2022-12-03T03:07:39.797Z,-2.57
2022-12-03T03:10:07.909Z,-2.59
2022-12-03T03:12:39.173Z,-2.69
2022-12-03T03:15:07.633Z,-2.65
2022-12-03T03:17:34.986Z,-2.62
2022-12-03T03:20:02.774Z,-2.62
2022-12-03T03:22:34.257Z,-2.62
2022-12-03T03:25:01.569Z,-2.64
2022-12-03T03:27:29.464Z,-2.66
2022-12-03T03:29:58.159Z,-2.60
2022-12-03T03:32:26.247Z,-2.69
2022-12-03T03:34:54.256Z,-2.69
2022-12-03T03:37:21.696Z,-2.62
2022-12-03T03:39:49.514Z,-2.64
2022-12-03T03:42:17.049Z,-2.68
2022-12-03T03:44:59.686Z,-2.66
2022-12-03T03:47:27.063Z,-2.72
2022-12-03T03:49:54.571Z,-2.66
2022-12-03T03:52:22.712Z,-2.73
2022-12-03T03:54:50.240Z,-2.68
2022-12-03T03:57:17.548Z,-2.64
2022-12-03T03:59:44.900Z,-2.66
2022-12-03T04:02:22.592Z,-2.68
2022-12-03T04:04:50.713Z,-2.66
2022-12-03T04:07:18.066Z,-2.68
2022-12-03T04:09:45.335Z,-2.63
2022-12-03T04:12:31.408Z,-2.63
2022-12-03T04:14:58.717Z,-2.71
2022-12-03T04:17:25.924Z,-2.69
2022-12-03T04:19:53.153Z,-2.66
2022-12-03T04:22:38.910Z,-2.68
2022-12-03T04:25:25.714Z,-2.73
2022-12-03T04:28:12.226Z,-2.72
2022-12-03T04:30:39.444Z,-2.72
2022-12-03T04:33:25.298Z,-2.68
2022-12-03T04:35:52.673Z,-2.68
2022-12-03T04:38:19.891Z,-2.71
2022-12-03T04:41:04.111Z,-2.72
2022-12-03T04:43:32.950Z,-2.77
2022-12-03T04:46:01.159Z,-2.73
2022-12-03T04:48:30.132Z,-2.79
2022-12-03T04:50:57.406Z,-2.78
2022-12-03T04:53:24.596Z,-2.70
2022-12-03T04:55:51.791Z,-2.71
2022-12-03T04:58:18.951Z,-2.74
2022-12-03T05:00:46.109Z,-2.66
2022-12-03T05:03:13.292Z,-2.69
2022-12-03T05:05:40.417Z,-2.73
2022-12-03T05:08:08.337Z,-2.65
2022-12-03T05:10:35.592Z,-2.67
2022-12-03T05:13:02.722Z,-2.71
2022-12-03T05:15:29.959Z,-2.73
2022-12-03T05:17:57.181Z,-2.66
2022-12-03T05:20:43.889Z,-2.64
2022-12-03T05:23:14.556Z,-2.69
2022-12-03T05:25:42.012Z,-2.65
2022-12-03T05:28:09.288Z,-2.72
2022-12-03T05:30:37.017Z,-2.65
2022-12-03T05:33:04.295Z,-2.63
2022-12-03T05:35:31.553Z,-2.65
2022-12-03T05:37:58.848Z,-2.64
2022-12-03T05:40:26.164Z,-2.64
2022-12-03T05:43:01.395Z,-2.58
2022-12-03T05:45:29.889Z,-2.57
2022-12-03T05:47:57.812Z,-2.58
2022-12-03T05:50:26.372Z,-2.54
2022-12-03T05:52:56.870Z,-2.58
2022-12-03T05:55:24.332Z,-2.59
2022-12-03T05:57:51.526Z,-2.58
2022-12-03T06:00:23.544Z,-2.57
2022-12-03T06:02:51.243Z,-2.60
2022-12-03T06:05:21.682Z,-2.60
2022-12-03T06:07:49.664Z,-2.56
2022-12-03T06:10:18.734Z,-2.55
2022-12-03T06:12:45.975Z,-2.57
2022-12-03T06:15:14.324Z,-2.55
2022-12-03T06:17:41.610Z,-2.58
2022-12-03T06:20:10.401Z,-2.62
2022-12-03T06:22:37.601Z,-2.54
2022-12-03T06:25:07.301Z,-2.51
2022-12-03T06:27:34.672Z,-2.49
2022-12-03T06:30:02.183Z,-2.49
2022-12-03T06:32:29.300Z,-2.57
2022-12-03T06:34:56.687Z,-2.54
2022-12-03T06:37:24.016Z,-2.52
2022-12-03T06:39:51.206Z,-2.55
2022-12-03T06:42:18.665Z,-2.53
2022-12-03T06:44:45.865Z,-2.58
2022-12-03T06:47:13.087Z,-2.60
2022-12-03T06:49:40.324Z,-2.50
2022-12-03T06:52:07.558Z,-2.55
2022-12-03T06:54:34.728Z,-2.58
2022-12-03T06:57:02.400Z,-2.55
2022-12-03T06:59:34.150Z,-2.56
2022-12-03T07:02:01.528Z,-2.51
2022-12-03T07:04:28.844Z,-2.53
2022-12-03T07:06:56.095Z,-2.57
2022-12-03T07:09:23.211Z,-2.47
2022-12-03T07:11:50.636Z,-2.55
2022-12-03T07:14:17.856Z,-2.56
2022-12-03T07:16:45.335Z,-2.57
2022-12-03T07:19:12.533Z,-2.58
2022-12-03T07:21:40.198Z,-2.53
2022-12-03T07:24:07.763Z,-2.53
2022-12-03T07:26:35.344Z,-2.47
2022-12-03T07:29:02.717Z,-2.34
2022-12-03T07:31:33.695Z,-2.36
2022-12-03T07:34:01.657Z,-2.41
2022-12-03T07:36:28.929Z,-2.41
2022-12-03T07:38:56.257Z,-2.32
2022-12-03T07:41:23.554Z,-2.32
2022-12-03T07:43:50.795Z,-2.17
2022-12-03T07:46:18.612Z,-2.22
2022-12-03T07:48:46.128Z,-2.11
2022-12-03T07:51:15.512Z,-2.21
2022-12-03T07:53:43.033Z,-2.14
2022-12-03T07:56:10.486Z,-2.18
2022-12-03T07:58:37.878Z,-2.10
2022-12-03T08:01:05.201Z,-2.06
2022-12-03T08:03:32.445Z,-2.03
2022-12-03T08:05:59.702Z,-2.01
2022-12-03T08:08:27.053Z,-2.07
2022-12-03T08:10:54.387Z,-2.07
2022-12-03T08:13:21.558Z,-2.06
2022-12-03T08:15:50.962Z,-1.93
2022-12-03T08:18:20.367Z,-2.01
2022-12-03T08:20:48.957Z,-2.05
2022-12-03T08:23:17.945Z,-2.00
2022-12-03T08:25:45.867Z,-2.02
2022-12-03T08:28:18.982Z,-1.99
2022-12-03T08:31:12.641Z,-2.05
2022-12-03T08:33:43.200Z,-1.98
2022-12-03T08:36:15.065Z,-1.93
2022-12-03T08:38:44.499Z,-1.84
2022-12-03T08:41:14.155Z,-1.84
2022-12-03T08:43:44.636Z,-1.75
2022-12-03T08:46:16.345Z,-1.76
2022-12-03T08:48:48.653Z,-1.73
2022-12-03T08:51:22.236Z,-1.64
2022-12-03T08:53:52.569Z,-1.59
2022-12-03T08:56:29.727Z,-1.57
2022-12-03T08:58:58.815Z,-1.49
2022-12-03T09:01:26.263Z,-1.41
2022-12-03T09:03:54.826Z,-1.46
2022-12-03T09:06:22.532Z,-1.43
2022-12-03T09:08:49.930Z,-1.43
2022-12-03T09:11:17.117Z,-1.43
2022-12-03T09:13:44.359Z,-1.43
2022-12-03T09:16:11.790Z,-1.45
2022-12-03T09:18:39.212Z,-1.36
2022-12-03T09:21:06.564Z,-1.27
2022-12-03T09:23:33.704Z,-1.34
2022-12-03T09:26:00.860Z,-1.31
2022-12-03T09:28:28.074Z,-1.38
2022-12-03T09:30:55.397Z,-1.31
2022-12-03T09:33:22.633Z,-1.25
2022-12-03T09:35:49.856Z,-1.17
2022-12-03T09:38:17.063Z,-1.09
2022-12-03T09:40:44.412Z,-1.03
2022-12-03T09:43:12.140Z,-0.99
2022-12-03T09:45:39.516Z,-1.01
2022-12-03T09:48:07.041Z,-0.98
2022-12-03T09:50:43.522Z,-0.96
2022-12-03T09:53:16.319Z,-0.85
2022-12-03T09:55:45.407Z,-0.87
2022-12-03T09:58:14.238Z,-0.73
2022-12-03T10:00:42.561Z,-0.81
2022-12-03T10:03:14.123Z,-0.86
2022-12-03T10:05:46.712Z,-0.92
2022-12-03T10:08:20.976Z,-0.74
2022-12-03T10:10:50.607Z,-0.68
2022-12-03T10:13:26.543Z,-0.73
2022-12-03T10:15:55.618Z,-0.84
2022-12-03T10:18:24.448Z,-0.82
2022-12-03T10:20:52.327Z,-0.92
2022-12-03T10:23:20.956Z,-0.72
2022-12-03T10:25:52.984Z,-0.70
2022-12-03T10:28:31.856Z,-0.79
2022-12-03T10:30:59.939Z,-0.82
2022-12-03T10:33:31.681Z,-0.78
2022-12-03T10:36:15.175Z,-0.81
2022-12-03T10:38:42.570Z,-0.78
2022-12-03T10:41:23.814Z,-0.85
2022-12-03T10:43:51.456Z,-0.81
2022-12-03T10:46:20.907Z,-0.87
2022-12-03T10:49:06.833Z,-0.94
2022-12-03T10:51:34.342Z,-0.93
2022-12-03T10:54:01.872Z,-0.93
2022-12-03T10:56:29.455Z,-0.88
2022-12-03T10:58:57.400Z,-0.78
2022-12-03T11:01:26.129Z,-0.81
2022-12-03T11:03:56.674Z,-0.88
2022-12-03T11:06:24.146Z,-0.93
2022-12-03T11:08:58.532Z,-0.89
2022-12-03T11:11:28.067Z,-0.96
2022-12-03T11:13:58.293Z,-0.98
2022-12-03T11:16:40.933Z,-1.00
2022-12-03T11:19:08.227Z,-0.93
2022-12-03T11:21:55.415Z,-0.88
2022-12-03T11:24:22.519Z,-0.97
2022-12-03T11:26:52.784Z,-0.99
2022-12-03T11:29:39.862Z,-0.94
2022-12-03T11:32:07.046Z,-0.93
2022-12-03T11:34:34.310Z,-0.88
2022-12-03T11:37:08.537Z,-0.96
2022-12-03T11:39:59.474Z,-0.81
2022-12-03T11:42:37.424Z,-0.85
2022-12-03T11:45:04.775Z,-0.87
2022-12-03T11:47:37.918Z,-0.84
2022-12-03T11:50:23.276Z,-0.88
2022-12-03T11:52:55.489Z,-0.86
2022-12-03T11:55:34.939Z,-0.81
2022-12-03T11:58:03.439Z,-0.77
2022-12-03T12:00:30.795Z,-0.59
2022-12-03T12:02:59.169Z,-0.53
2022-12-03T12:05:28.223Z,-0.50
2022-12-03T12:07:56.362Z,-0.43
2022-12-03T12:10:42.643Z,-0.45
2022-12-03T12:13:30.644Z,-0.47
2022-12-03T12:16:01.907Z,-0.49
2022-12-03T12:18:35.363Z,-0.40
2022-12-03T12:21:21.354Z,-0.48
2022-12-03T12:23:48.609Z,-0.44
2022-12-03T12:26:15.885Z,-0.62
2022-12-03T12:28:43.084Z,-0.58
2022-12-03T12:31:13.394Z,-0.57
2022-12-03T12:33:40.785Z,-0.67
2022-12-03T12:36:09.418Z,-0.76
2022-12-03T12:38:36.644Z,-0.72
2022-12-03T12:41:07.182Z,-0.79
2022-12-03T12:43:36.030Z,-0.83
2022-12-03T12:46:46.041Z,-0.82
2022-12-03T12:49:01.558Z,-0.80
2022-12-03T12:51:28.769Z,-0.86
2022-12-03T12:53:57.241Z,-0.90
2022-12-03T12:56:24.688Z,-0.89
2022-12-03T12:58:52.525Z,-1.00
2022-12-03T13:01:27.141Z,-0.97
2022-12-03T13:03:54.919Z,-0.97
2022-12-03T13:06:30.135Z,-0.93
2022-12-03T13:09:01.323Z,-0.91
2022-12-03T13:11:51.903Z,-0.93
2022-12-03T13:14:23.244Z,-0.89
2022-12-03T13:16:54.356Z,-0.84
2022-12-03T13:19:25.710Z,-0.81
2022-12-03T13:21:53.780Z,-0.72
2022-12-03T13:24:36.116Z,-0.73
2022-12-03T13:27:18.569Z,-0.64
2022-12-03T13:29:57.428Z,-0.64
2022-12-03T13:32:36.060Z,-0.59
2022-12-03T13:35:06.708Z,-0.58
2022-12-03T13:37:33.919Z,-0.55
2022-12-03T13:40:08.384Z,-0.60
2022-12-03T13:42:39.727Z,-0.66
2022-12-03T13:45:27.462Z,-0.58
2022-12-03T13:47:59.287Z,-0.55
2022-12-03T13:50:40.136Z,-0.60
2022-12-03T13:53:07.260Z,-0.57
2022-12-03T13:55:34.558Z,-0.47
2022-12-03T13:58:01.913Z,-0.50
2022-12-03T14:00:29.079Z,-0.41
2022-12-03T14:02:56.241Z,-0.45
2022-12-03T14:05:23.483Z,-0.46
2022-12-03T14:07:50.792Z,-0.53
2022-12-03T14:10:18.134Z,-0.43
2022-12-03T14:12:45.271Z,-0.45
2022-12-03T14:15:12.564Z,-0.45
2022-12-03T14:17:39.764Z,-0.42
2022-12-03T14:20:08.247Z,-0.35
2022-12-03T14:22:38.178Z,-0.44
2022-12-03T14:25:06.200Z,-0.41
2022-12-03T14:27:33.380Z,-0.36
2022-12-03T14:30:00.703Z,-0.32
2022-12-03T14:32:28.535Z,-0.29
2022-12-03T14:34:56.026Z,-0.29
2022-12-03T14:37:23.227Z,-0.27
2022-12-03T14:39:50.502Z,-0.39
2022-12-03T14:42:18.595Z,-0.42
2022-12-03T14:44:47.396Z,-0.37
2022-12-03T14:47:15.251Z,-0.41
2022-12-03T14:49:42.504Z,-0.39
2022-12-03T14:52:12.418Z,-0.45
2022-12-03T14:54:42.751Z,-0.49
2022-12-03T14:57:11.734Z,-0.49
2022-12-03T14:59:39.516Z,-0.47
2022-12-03T15:02:07.025Z,-0.51
2022-12-03T15:04:34.789Z,-0.66
2022-12-03T15:07:02.036Z,-0.58
2022-12-03T15:09:29.271Z,-0.54
2022-12-03T15:11:56.476Z,-0.58
2022-12-03T15:14:23.812Z,-0.57
2022-12-03T15:16:51.226Z,-0.60
2022-12-03T15:19:18.503Z,-0.71
2022-12-03T15:21:45.750Z,-0.72
2022-12-03T15:24:12.961Z,-0.71
2022-12-03T15:26:40.191Z,-0.71
2022-12-03T15:29:07.531Z,-0.69
2022-12-03T15:31:35.121Z,-0.71
2022-12-03T15:34:02.365Z,-0.77
2022-12-03T15:36:29.618Z,-0.73
2022-12-03T15:38:57.719Z,-0.75
2022-12-03T15:41:29.324Z,-0.72
2022-12-03T15:43:58.078Z,-0.69
2022-12-03T15:46:26.852Z,-0.80
2022-12-03T15:48:54.539Z,-0.80
2022-12-03T15:51:21.942Z,-0.80
2022-12-03T15:53:49.439Z,-0.72
2022-12-03T15:56:17.036Z,-0.77
2022-12-03T15:58:44.206Z,-0.75
2022-12-03T16:01:13.838Z,-0.79
2022-12-03T16:03:41.904Z,-0.77
2022-12-03T16:06:09.578Z,-0.71
2022-12-03T16:08:36.843Z,-0.80
2022-12-03T16:11:04.271Z,-0.78
2022-12-03T16:13:31.600Z,-0.88
2022-12-03T16:15:58.873Z,-0.88
2022-12-03T16:18:26.219Z,-0.74
2022-12-03T16:20:53.505Z,-0.77
2022-12-03T16:23:20.818Z,-0.70
2022-12-03T16:25:48.169Z,-0.73
2022-12-03T16:28:15.397Z,-0.81
2022-12-03T16:30:42.743Z,-0.73
2022-12-03T16:33:09.995Z,-0.72
2022-12-03T16:35:38.347Z,-0.76
2022-12-03T16:38:05.925Z,-0.81
2022-12-03T16:40:33.427Z,-0.67
2022-12-03T16:43:00.750Z,-0.69
2022-12-03T16:45:51.655Z,-0.74
2022-12-03T16:48:19.040Z,-0.75
2022-12-03T16:50:46.516Z,-0.72
2022-12-03T16:53:14.669Z,-0.71
2022-12-03T16:55:41.986Z,-0.77
2022-12-03T16:58:09.415Z,-0.73
2022-12-03T17:00:36.781Z,-0.74
2022-12-03T17:03:04.127Z,-0.77
2022-12-03T17:05:31.544Z,-0.74
2022-12-03T17:07:58.789Z,-0.73
2022-12-03T17:14:21.567Z,-0.70
2022-12-03T17:16:48.771Z,-0.74
2022-12-03T17:19:16.830Z,-0.68
2022-12-03T17:21:44.139Z,-0.59
2022-12-03T17:24:11.442Z,-0.67
2022-12-03T17:26:41.213Z,-0.55
2022-12-03T17:29:08.459Z,-0.58
2022-12-03T17:31:41.381Z,-0.52
2022-12-03T17:34:09.558Z,-0.46
2022-12-03T17:36:36.759Z,-0.45
2022-12-03T17:39:03.848Z,-0.46
2022-12-03T17:41:31.028Z,-0.48
2022-12-03T17:43:58.709Z,-0.46
2022-12-03T17:46:26.010Z,-0.46
2022-12-03T17:48:53.511Z,-0.42
2022-12-03T17:51:21.633Z,-0.35
2022-12-03T17:53:48.947Z,-0.32
2022-12-03T17:56:16.276Z,-0.28
2022-12-03T17:58:43.482Z,-0.31
2022-12-03T18:01:10.735Z,-0.27
2022-12-03T18:03:37.941Z,-0.29
2022-12-03T18:06:15.039Z,-0.23
2022-12-03T18:08:44.057Z,-0.23
2022-12-03T18:11:12.317Z,-0.21
2022-12-03T18:13:40.132Z,-0.22
2022-12-03T18:16:08.036Z,-0.24
2022-12-03T18:21:26.882Z,-0.28
2022-12-03T18:23:58.323Z,-0.34
2022-12-03T18:26:25.781Z,-0.34
2022-12-03T18:28:52.809Z,-0.35
2022-12-03T18:31:21.079Z,-0.33
2022-12-03T18:33:48.694Z,-0.28
2022-12-03T18:36:20.937Z,-0.22
2022-12-03T18:38:50.951Z,-0.16
2022-12-03T18:41:19.212Z,-0.31
2022-12-03T18:43:46.410Z,-0.25
2022-12-03T18:46:51.210Z,-0.28
2022-12-03T18:49:04.328Z,-0.28
2022-12-03T18:51:32.478Z,-0.23
2022-12-03T18:53:59.500Z,-0.23
2022-12-03T18:56:26.563Z,-0.18
2022-12-03T18:58:53.622Z,-0.09
2022-12-03T19:01:21.711Z,-0.11
2022-12-03T19:03:49.653Z,-0.14
2022-12-03T19:06:19.168Z,-0.16
2022-12-03T19:08:48.187Z,-0.11
2022-12-03T19:11:15.734Z,-0.11
2022-12-03T19:13:45.918Z,-0.12
2022-12-03T19:16:12.928Z,-0.08
2022-12-03T19:18:40.382Z,-0.03
2022-12-03T19:21:11.394Z,-0.08
2022-12-03T19:23:38.985Z,-0.07
2022-12-03T19:26:07.261Z,-0.14
2022-12-03T19:28:34.225Z,-0.16
2022-12-03T19:31:12.221Z,-0.19
2022-12-03T19:33:45.440Z,-0.16
2022-12-03T19:36:23.352Z,-0.08
2022-12-03T19:38:56.628Z,-0.13
2022-12-03T19:41:26.730Z,-0.14
2022-12-03T19:43:54.524Z,-0.09
2022-12-03T19:46:22.312Z,-0.12
2022-12-03T19:48:49.280Z,-0.10
2022-12-03T19:51:33.462Z,-0.09
2022-12-03T19:54:03.446Z,-0.12
2022-12-03T19:56:30.575Z,-0.15
2022-12-03T19:58:57.899Z,-0.18
2022-12-03T20:01:30.853Z,-0.14
2022-12-03T20:04:01.897Z,-0.17
2022-12-03T20:06:30.060Z,-0.10
2022-12-03T20:09:14.183Z,-0.12
2022-12-03T20:11:44.617Z,-0.06
2022-12-03T20:14:16.848Z,-0.17
2022-12-03T20:16:44.575Z,-0.06
2022-12-03T20:19:16.148Z,-0.13
2022-12-03T20:21:44.088Z,-0.21
2022-12-03T20:24:13.446Z,-0.13
2022-12-03T20:26:41.067Z,-0.20
2022-12-03T20:29:10.994Z,-0.18
2022-12-03T20:31:46.626Z,-0.25
2022-12-03T20:34:18.835Z,-0.22
2022-12-03T20:36:46.260Z,-0.19
2022-12-03T20:39:14.281Z,-0.23
2022-12-03T20:41:43.642Z,-0.20
2022-12-03T20:44:10.587Z,-0.29
2022-12-03T20:46:37.695Z,-0.27
2022-12-03T20:49:04.747Z,-0.29
2022-12-03T20:51:31.846Z,-0.29
2022-12-03T20:54:01.232Z,-0.33
2022-12-03T20:56:40.205Z,-0.30
2022-12-03T20:59:08.309Z,-0.31
2022-12-03T21:01:38.945Z,-0.35
2022-12-03T21:04:09.594Z,-0.30
2022-12-03T21:06:37.084Z,-0.33
2022-12-03T21:09:06.902Z,-0.30
2022-12-03T21:11:35.849Z,-0.29
2022-12-03T21:14:04.093Z,-0.30
2022-12-03T21:17:06.419Z,-0.31
2022-12-03T21:19:20.968Z,-0.25
2022-12-03T21:21:48.510Z,-0.22
2022-12-03T21:24:15.541Z,-0.25
2022-12-03T21:26:45.280Z,-0.26
2022-12-03T21:29:12.328Z,-0.25
2022-12-03T21:31:39.980Z,-0.27
2022-12-03T21:34:10.040Z,-0.25
2022-12-03T21:36:40.091Z,-0.26
2022-12-03T21:39:07.078Z,-0.25
2022-12-03T21:41:35.504Z,-0.23
2022-12-03T21:44:02.936Z,-0.23
2022-12-03T21:47:12.280Z,-0.27
2022-12-03T21:49:19.283Z,-0.25
2022-12-03T21:51:46.820Z,-0.31
2022-12-03T21:54:19.959Z,-0.30
2022-12-03T21:56:46.941Z,-0.27
2022-12-03T21:59:15.696Z,-0.21
2022-12-03T22:01:47.329Z,-0.28
2022-12-03T22:04:14.666Z,-0.26
2022-12-03T22:06:44.591Z,-0.28
2022-12-03T22:09:12.622Z,-0.32
2022-12-03T22:11:39.828Z,-0.30
2022-12-03T22:14:09.630Z,-0.33
2022-12-03T22:16:36.657Z,-0.29
2022-12-03T22:19:04.005Z,-0.22
2022-12-03T22:21:31.149Z,-0.28
2022-12-03T22:24:01.412Z,-0.29
2022-12-03T22:26:28.317Z,-0.24
2022-12-03T22:28:55.272Z,-0.26
2022-12-03T22:31:23.532Z,-0.31
2022-12-03T22:33:50.468Z,-0.27
2022-12-03T22:36:21.877Z,-0.28
2022-12-03T22:38:51.832Z,-0.34
2022-12-03T22:41:19.612Z,-0.35
2022-12-03T22:44:07.590Z,-0.33
2022-12-03T22:46:34.732Z,-0.32
2022-12-03T22:49:06.837Z,-0.32
2022-12-03T22:51:38.917Z,-0.29
2022-12-03T22:54:08.366Z,-0.34
2022-12-03T22:56:35.323Z,-0.34
2022-12-03T22:59:02.845Z,-0.32
2022-12-03T23:01:30.881Z,-0.39
2022-12-03T23:04:01.244Z,-0.36
2022-12-03T23:06:32.339Z,-0.41
2022-12-03T23:08:59.451Z,-0.40
2022-12-03T23:11:33.969Z,-0.36
2022-12-03T23:14:01.092Z,-0.33
2022-12-03T23:16:30.097Z,-0.32
2022-12-03T23:18:58.167Z,-0.43
2022-12-03T23:21:29.942Z,-0.38
2022-12-03T23:24:00.776Z,-0.35
2022-12-03T23:26:28.414Z,-0.38
2022-12-03T23:28:55.399Z,-0.34
2022-12-03T23:31:23.117Z,-0.36
2022-12-03T23:33:51.526Z,-0.35
2022-12-03T23:36:19.079Z,-0.41
2022-12-03T23:38:46.152Z,-0.40
2022-12-03T23:41:14.895Z,-0.39
2022-12-03T23:43:42.006Z,-0.36
2022-12-03T23:46:13.219Z,-0.33
2022-12-03T23:48:40.642Z,-0.38
2022-12-03T23:51:08.647Z,-0.38
2022-12-03T23:53:35.908Z,-0.30
2022-12-03T23:56:06.567Z,-0.35
2022-12-03T23:58:33.970Z,-0.37
